createdAt,value
2018-12-19T00:02:52.866Z,8.20
2018-12-19T00:07:56.119Z,8.30
2018-12-19T00:12:59.354Z,8.30
2018-12-19T00:18:02.612Z,8.30
2018-12-19T00:23:05.781Z,8.20
2018-12-19T00:28:08.947Z,8.50
2018-12-19T00:33:12.119Z,8.40
2018-12-19T00:38:15.267Z,8.30
2018-12-19T00:43:18.414Z,8.40
2018-12-19T00:48:21.583Z,8.30
2018-12-19T00:53:24.742Z,8.20
2018-12-19T00:58:28.660Z,8.30
2018-12-19T01:03:32.486Z,8.30
2018-12-19T01:08:35.647Z,8.30
2018-12-19T01:13:38.873Z,8.40
2018-12-19T01:18:42.030Z,8.40
2018-12-19T01:23:45.190Z,8.30
2018-12-19T01:28:48.484Z,8.40
2018-12-19T01:33:51.621Z,8.20
2018-12-19T01:38:54.781Z,8.40
2018-12-19T01:43:57.954Z,8.50
2018-12-19T01:49:01.097Z,8.40
2018-12-19T01:54:05.267Z,8.30
2018-12-19T01:59:08.671Z,8.60
2018-12-19T02:04:11.866Z,8.20
2018-12-19T02:09:15.505Z,7.90
2018-12-19T02:14:18.658Z,8.30
2018-12-19T02:19:21.834Z,8.40
2018-12-19T02:24:24.989Z,8.60
2018-12-19T02:29:28.133Z,8.50
2018-12-19T02:34:31.381Z,8.30
2018-12-19T02:39:36.365Z,8.30
2018-12-19T02:44:40.309Z,8.40
2018-12-19T02:49:43.589Z,8.40
2018-12-19T02:54:46.906Z,8.30
2018-12-19T02:59:50.150Z,8.50
2018-12-19T03:04:53.389Z,8.50
2018-12-19T03:09:56.650Z,8.40
2018-12-19T03:14:59.894Z,8.40
2018-12-19T03:20:03.358Z,8.40
2018-12-19T03:25:06.811Z,8.30
2018-12-19T03:30:10.193Z,8.40
2018-12-19T03:35:14.464Z,8.80
2018-12-19T03:40:17.798Z,8.40
2018-12-19T03:45:22.072Z,8.30
2018-12-19T03:50:25.303Z,8.40
2018-12-19T03:55:28.546Z,8.60
2018-12-19T04:00:31.797Z,8.40
2018-12-19T04:05:35.043Z,8.60
2018-12-19T04:10:38.298Z,8.40
2018-12-19T04:15:41.631Z,8.30
2018-12-19T04:20:44.890Z,8.60
2018-12-19T04:25:48.125Z,8.60
2018-12-19T04:30:53.197Z,8.70
2018-12-19T04:35:56.615Z,8.70
2018-12-19T04:41:00.918Z,8.60
2018-12-19T04:46:04.149Z,8.50
2018-12-19T04:51:07.394Z,8.50
2018-12-19T04:56:10.642Z,8.50
2018-12-19T05:01:13.889Z,8.60
2018-12-19T05:06:17.542Z,8.50
2018-12-19T05:11:20.777Z,8.60
2018-12-19T05:16:24.060Z,8.60
2018-12-19T05:21:27.286Z,8.60
2018-12-19T05:26:30.530Z,8.90
2018-12-19T05:31:33.790Z,8.60
2018-12-19T05:36:37.170Z,8.70
2018-12-19T05:41:40.409Z,8.60
2018-12-19T05:46:43.677Z,8.60
2018-12-19T05:51:46.959Z,8.60
2018-12-19T05:56:50.299Z,8.60
2018-12-19T06:01:53.558Z,8.60
2018-12-19T06:06:56.794Z,8.90
2018-12-19T06:12:00.073Z,8.90
2018-12-19T06:17:03.323Z,8.80
2018-12-19T06:22:06.554Z,8.60
2018-12-19T06:27:09.794Z,8.70
2018-12-19T06:32:13.886Z,8.80
2018-12-19T06:37:17.138Z,8.70
2018-12-19T06:42:20.705Z,8.90
2018-12-19T06:47:23.941Z,8.90
2018-12-19T06:52:27.203Z,8.70
2018-12-19T06:57:30.450Z,8.80
2018-12-19T07:02:33.702Z,8.80
2018-12-19T07:07:36.955Z,8.60
2018-12-19T07:12:40.178Z,8.90
2018-12-19T07:17:43.707Z,8.60
2018-12-19T07:22:46.942Z,8.70
2018-12-19T07:27:50.883Z,8.70
2018-12-19T07:32:54.122Z,8.70
2018-12-19T07:37:57.353Z,8.70
2018-12-19T07:43:00.586Z,9.00
2018-12-19T07:48:03.922Z,8.90
2018-12-19T07:53:07.149Z,8.70
2018-12-19T07:58:10.413Z,9.00
2018-12-19T08:03:13.652Z,9.00
2018-12-19T08:08:16.890Z,8.80
2018-12-19T08:13:20.129Z,9.00
2018-12-19T08:18:23.370Z,8.90
2018-12-19T08:23:26.588Z,8.90
2018-12-19T08:28:29.810Z,9.20
2018-12-19T08:33:33.050Z,9.00
2018-12-19T08:38:36.385Z,8.90
2018-12-19T08:43:40.026Z,9.00
2018-12-19T08:48:43.354Z,8.90
2018-12-19T08:53:46.605Z,8.90
2018-12-19T08:58:50.710Z,9.00
2018-12-19T09:03:54.040Z,8.90
2018-12-19T09:08:57.254Z,8.90
2018-12-19T09:14:01.297Z,9.00
2018-12-19T09:19:04.706Z,9.10
2018-12-19T09:24:07.958Z,8.90
2018-12-19T09:29:11.200Z,9.00
2018-12-19T09:34:16.539Z,9.10
2018-12-19T09:39:19.774Z,8.90
2018-12-19T09:44:23.018Z,9.20
2018-12-19T09:49:26.246Z,9.00
2018-12-19T09:54:29.034Z,9.10
2018-12-19T09:59:32.258Z,9.10
2018-12-19T10:04:35.489Z,9.20
2018-12-19T10:09:38.752Z,9.40
2018-12-19T10:14:41.994Z,9.00
2018-12-19T10:19:45.223Z,9.30
2018-12-19T10:24:54.050Z,9.20
2018-12-19T10:29:57.406Z,9.30
2018-12-19T10:35:00.653Z,9.50
2018-12-19T10:40:04.718Z,9.50
2018-12-19T10:45:09.935Z,9.40
2018-12-19T10:50:13.154Z,9.30
2018-12-19T10:55:16.494Z,9.40
2018-12-19T11:00:25.031Z,9.80
2018-12-19T11:05:28.338Z,9.60
2018-12-19T11:10:31.650Z,9.90
2018-12-19T11:15:34.887Z,9.70
2018-12-19T11:20:38.109Z,9.90
2018-12-19T11:25:41.350Z,9.60
2018-12-19T11:30:44.670Z,9.90
2018-12-19T11:35:47.904Z,10.00
2018-12-19T11:40:51.142Z,10.10
2018-12-19T11:45:54.385Z,10.10
2018-12-19T11:50:57.626Z,10.10
2018-12-19T11:56:01.753Z,10.20
2018-12-19T12:01:04.982Z,10.20
2018-12-19T12:06:08.221Z,10.10
2018-12-19T12:11:12.006Z,10.20
2018-12-19T12:16:15.786Z,10.20
2018-12-19T12:21:19.145Z,10.30
2018-12-19T12:26:22.389Z,10.20
2018-12-19T12:31:25.733Z,10.50
2018-12-19T12:36:29.066Z,11.30
2018-12-19T12:41:32.414Z,10.90
2018-12-19T12:46:35.686Z,10.50
2018-12-19T12:51:38.918Z,10.40
2018-12-19T12:56:42.170Z,10.50
2018-12-19T13:01:45.514Z,10.50
2018-12-19T13:06:48.758Z,10.50
2018-12-19T13:11:51.994Z,10.40
2018-12-19T13:16:55.229Z,10.30
2018-12-19T13:21:58.478Z,10.40
2018-12-19T13:27:01.769Z,10.50
2018-12-19T13:32:05.214Z,10.40
2018-12-19T13:37:08.438Z,10.00
2018-12-19T13:42:11.738Z,11.50
2018-12-19T13:47:14.989Z,11.10
2018-12-19T13:52:18.235Z,10.50
2018-12-19T13:57:21.476Z,10.50
2018-12-19T14:02:24.710Z,10.60
2018-12-19T14:07:27.974Z,10.40
2018-12-19T14:12:31.203Z,10.50
2018-12-19T14:17:34.422Z,10.20
2018-12-19T14:22:37.677Z,10.40
2018-12-19T14:27:40.894Z,10.10
2018-12-19T14:32:44.131Z,10.20
2018-12-19T14:37:47.359Z,10.30
2018-12-19T14:42:50.613Z,10.40
2018-12-19T14:47:53.979Z,10.10
2018-12-19T14:52:57.206Z,10.20
2018-12-19T14:58:01.919Z,10.40
2018-12-19T15:03:05.165Z,10.40
2018-12-19T15:08:08.390Z,10.10
2018-12-19T15:13:11.694Z,10.20
2018-12-19T15:18:15.244Z,10.20
2018-12-19T15:23:18.629Z,10.20
2018-12-19T15:28:21.872Z,10.20
2018-12-19T15:33:25.111Z,10.10
2018-12-19T15:38:28.454Z,10.20
2018-12-19T15:43:31.690Z,10.20
2018-12-19T15:48:34.942Z,10.00
2018-12-19T15:53:38.174Z,10.10
2018-12-19T15:58:41.401Z,10.30
2018-12-19T16:03:44.654Z,10.30
2018-12-19T16:08:47.882Z,10.20
2018-12-19T16:13:51.151Z,10.10
2018-12-19T16:18:54.387Z,10.10
2018-12-19T16:23:57.886Z,10.10
2018-12-19T16:29:01.147Z,10.00
2018-12-19T16:34:04.463Z,10.20
2018-12-19T16:39:09.077Z,10.20
2018-12-19T16:44:12.362Z,10.00
2018-12-19T16:49:15.714Z,10.20
2018-12-19T16:54:19.130Z,10.20
2018-12-19T16:59:22.382Z,10.00
2018-12-19T17:04:26.476Z,10.10
2018-12-19T17:09:30.414Z,10.30
2018-12-19T17:14:34.272Z,10.10
2018-12-19T17:19:37.677Z,9.70
2018-12-19T17:24:41.670Z,10.00
2018-12-19T17:29:46.235Z,9.60
2018-12-19T17:34:49.442Z,10.00
2018-12-19T17:39:53.582Z,9.90
2018-12-19T17:44:56.816Z,9.90
2018-12-19T17:50:00.145Z,9.80
2018-12-19T17:55:03.782Z,9.80
2018-12-19T18:00:07.295Z,9.90
2018-12-19T18:05:10.591Z,9.60
2018-12-19T18:10:13.818Z,9.90
2018-12-19T18:15:17.193Z,9.90
2018-12-19T18:20:21.271Z,9.90
2018-12-19T18:25:24.518Z,9.90
2018-12-19T18:30:27.750Z,9.90
2018-12-19T18:35:30.995Z,9.80
2018-12-19T18:40:34.248Z,9.80
2018-12-19T18:45:37.575Z,9.90
2018-12-19T18:50:41.927Z,9.90
2018-12-19T18:55:45.274Z,9.90
2018-12-19T19:00:48.663Z,9.90
2018-12-19T19:05:51.882Z,9.80
2018-12-19T19:10:55.130Z,9.60
2018-12-19T19:15:58.380Z,9.90
2018-12-19T19:21:01.613Z,9.90
2018-12-19T19:26:04.842Z,9.90
2018-12-19T19:31:08.082Z,9.80
2018-12-19T19:36:11.326Z,9.60
2018-12-19T19:41:14.718Z,9.70
2018-12-19T19:46:18.441Z,9.80
2018-12-19T19:51:21.684Z,9.80
2018-12-19T19:56:24.910Z,9.80
2018-12-19T20:01:28.149Z,9.80
2018-12-19T20:06:31.490Z,9.90
2018-12-19T20:11:34.723Z,9.60
2018-12-19T20:16:43.313Z,9.90
2018-12-19T20:21:46.646Z,9.90
2018-12-19T20:26:49.970Z,9.80
2018-12-19T20:31:53.246Z,9.90
2018-12-19T20:36:56.482Z,9.60
2018-12-19T20:41:59.718Z,9.80
2018-12-19T20:47:02.982Z,9.90
2018-12-19T20:52:06.207Z,9.90
2018-12-19T20:57:09.446Z,9.60
2018-12-19T21:02:12.896Z,9.80
2018-12-19T21:07:16.130Z,9.90
2018-12-19T21:12:19.369Z,9.60
2018-12-19T21:17:27.994Z,9.90
2018-12-19T21:22:31.211Z,9.90
2018-12-19T21:27:34.466Z,9.60
2018-12-19T21:32:37.694Z,9.70
2018-12-19T21:37:40.456Z,9.80
2018-12-19T21:42:43.811Z,9.60
2018-12-19T21:47:47.179Z,9.90
2018-12-19T21:52:50.489Z,9.60
2018-12-19T21:57:53.717Z,9.60
2018-12-19T22:02:57.044Z,9.70
2018-12-19T22:08:00.375Z,9.60
2018-12-19T22:13:03.935Z,9.90
2018-12-19T22:18:12.506Z,9.60
2018-12-19T22:23:15.916Z,9.90
2018-12-19T22:28:19.145Z,9.90
2018-12-19T22:33:22.457Z,9.60
2018-12-19T22:38:25.754Z,9.90
2018-12-19T22:43:29.009Z,9.90
2018-12-19T22:48:32.376Z,9.60
2018-12-19T22:53:35.715Z,9.80
2018-12-19T22:58:39.032Z,9.60
2018-12-19T23:03:47.666Z,9.90
2018-12-19T23:08:51.889Z,9.60
2018-12-19T23:13:55.256Z,9.90
2018-12-19T23:18:58.586Z,9.90
2018-12-19T23:24:01.811Z,9.70
2018-12-19T23:29:05.664Z,9.60
2018-12-19T23:34:09.410Z,9.60
2018-12-19T23:39:12.731Z,9.90
2018-12-19T23:44:22.592Z,9.60
2018-12-19T23:49:25.452Z,9.90
2018-12-19T23:54:29.133Z,9.90
2018-12-19T23:59:32.884Z,10.00
